createdAt,value
2023-01-28T00:02:09.507Z,18.57
2023-01-28T00:04:37.745Z,18.93
2023-01-28T00:07:05.888Z,19.10
2023-01-28T00:09:35.385Z,19.70
2023-01-28T00:12:03.448Z,19.03
2023-01-28T00:14:31.569Z,18.70
2023-01-28T00:16:59.715Z,18.17
2023-01-28T00:19:27.737Z,18.20
2023-01-28T00:21:55.802Z,18.43
2023-01-28T00:24:24.103Z,18.90
2023-01-28T00:26:53.538Z,18.70
2023-01-28T00:29:21.558Z,19.70
2023-01-28T00:31:49.683Z,19.20
2023-01-28T00:34:17.998Z,19.40
2023-01-28T00:36:46.169Z,19.07
2023-01-28T00:39:16.137Z,19.60
2023-01-28T00:41:46.460Z,19.60
2023-01-28T00:44:15.913Z,19.93
2023-01-28T00:46:44.063Z,19.43
2023-01-28T00:49:12.324Z,19.30
2023-01-28T00:51:40.571Z,18.63
2023-01-28T00:54:09.129Z,18.00
2023-01-28T00:56:37.921Z,18.07
2023-01-28T00:59:06.189Z,18.50
2023-01-28T01:01:35.854Z,17.93
2023-01-28T01:04:04.038Z,18.60
2023-01-28T01:06:34.189Z,18.50
2023-01-28T01:09:03.440Z,18.53
2023-01-28T01:11:31.578Z,18.30
2023-01-28T01:14:01.737Z,18.10
2023-01-28T01:16:33.352Z,17.83
2023-01-28T01:19:03.164Z,17.90
2023-01-28T01:21:32.266Z,19.03
2023-01-28T01:24:00.446Z,17.83
2023-01-28T01:26:28.539Z,17.87
2023-01-28T01:28:56.740Z,18.37
2023-01-28T01:31:24.948Z,18.13
2023-01-28T01:33:54.042Z,18.70
2023-01-28T01:36:23.719Z,18.03
2023-01-28T01:38:54.844Z,18.23
2023-01-28T01:41:28.751Z,17.90
2023-01-28T01:43:59.173Z,18.50
2023-01-28T01:46:34.437Z,17.97
2023-01-28T01:49:12.814Z,19.53
2023-01-28T01:51:43.742Z,18.20
2023-01-28T01:54:11.994Z,18.67
2023-01-28T01:56:44.220Z,19.10
2023-01-28T01:59:16.568Z,19.37
2023-01-28T02:01:46.600Z,18.50
2023-01-28T02:04:20.310Z,18.73
2023-01-28T02:06:50.568Z,18.73
2023-01-28T02:09:26.789Z,18.30
2023-01-28T02:11:57.729Z,18.17
2023-01-28T02:14:31.720Z,18.10
2023-01-28T02:17:02.216Z,17.70
2023-01-28T02:19:38.222Z,17.70
2023-01-28T02:22:39.910Z,18.23
2023-01-28T02:25:31.620Z,17.70
2023-01-28T02:28:17.011Z,18.20
2023-01-28T02:30:52.544Z,17.90
2023-01-28T02:33:29.692Z,17.97
2023-01-28T02:36:00.015Z,18.07
2023-01-28T02:38:33.105Z,18.50
2023-01-28T02:41:06.621Z,18.47
2023-01-28T02:43:38.682Z,18.80
2023-01-28T02:46:35.734Z,18.77
2023-01-28T02:49:06.421Z,18.53
2023-01-28T02:51:50.908Z,18.97
2023-01-28T02:54:28.313Z,19.80
2023-01-28T02:57:05.088Z,19.60
2023-01-28T02:59:41.746Z,19.90
2023-01-28T03:02:16.583Z,20.13
2023-01-28T03:04:50.152Z,20.10
2023-01-28T03:07:19.484Z,20.20
2023-01-28T03:09:48.681Z,20.57
2023-01-28T03:12:39.052Z,20.40
2023-01-28T03:15:31.974Z,20.83
2023-01-28T03:18:22.137Z,20.60
2023-01-28T03:21:13.450Z,20.10
2023-01-28T03:24:06.833Z,20.50
2023-01-28T03:26:56.588Z,20.57
2023-01-28T03:29:43.884Z,19.70
2023-01-28T03:32:31.595Z,19.60
2023-01-28T03:35:17.758Z,19.43
2023-01-28T03:37:46.661Z,19.77
2023-01-28T03:40:15.355Z,19.23
2023-01-28T03:42:43.428Z,19.40
2023-01-28T03:45:12.859Z,18.97
2023-01-28T03:47:43.307Z,18.70
2023-01-28T03:50:12.287Z,19.07
2023-01-28T03:52:40.547Z,19.13
2023-01-28T03:55:14.186Z,18.60
2023-01-28T03:57:44.749Z,19.10
2023-01-28T04:00:14.410Z,18.77
2023-01-28T04:02:43.914Z,19.20
2023-01-28T04:05:15.881Z,18.87
2023-01-28T04:07:44.335Z,19.50
2023-01-28T04:10:13.389Z,18.23
2023-01-28T04:12:41.463Z,18.40
2023-01-28T04:15:16.085Z,17.80
2023-01-28T04:17:47.756Z,18.20
2023-01-28T04:20:16.610Z,18.33
2023-01-28T04:22:44.793Z,19.00
2023-01-28T04:25:13.500Z,18.53
2023-01-28T04:27:41.947Z,18.60
2023-01-28T04:30:11.371Z,18.40
2023-01-28T04:32:39.526Z,18.23
2023-01-28T04:35:10.085Z,18.40
2023-01-28T04:37:38.209Z,19.43
2023-01-28T04:40:07.285Z,18.07
2023-01-28T04:42:35.384Z,18.30
2023-01-28T04:45:03.615Z,18.70
2023-01-28T04:47:31.746Z,18.27
2023-01-28T04:49:59.855Z,18.30
2023-01-28T04:52:29.293Z,18.00
2023-01-28T04:54:57.311Z,18.75
2023-01-28T04:57:25.449Z,17.87
2023-01-28T04:59:53.577Z,17.67
2023-01-28T05:02:21.690Z,17.77
2023-01-28T05:04:49.839Z,18.00
2023-01-28T05:07:17.902Z,17.73
2023-01-28T05:09:47.527Z,18.00
2023-01-28T05:12:15.619Z,18.27
2023-01-28T05:14:43.705Z,18.13
2023-01-28T05:17:11.831Z,18.23
2023-01-28T05:19:40.005Z,18.20
2023-01-28T05:22:08.069Z,18.40
2023-01-28T05:24:36.267Z,17.87
2023-01-28T05:27:05.679Z,17.80
2023-01-28T05:29:33.884Z,18.30
2023-01-28T05:32:04.062Z,18.20
2023-01-28T05:34:32.109Z,18.30
2023-01-28T05:37:00.181Z,18.10
2023-01-28T05:39:28.291Z,18.13
2023-01-28T05:41:56.426Z,18.33
2023-01-28T05:44:25.914Z,18.53
2023-01-28T05:46:54.075Z,17.93
2023-01-28T05:49:22.305Z,18.83
2023-01-28T05:51:50.394Z,18.27
2023-01-28T05:54:18.418Z,17.90
2023-01-28T05:56:47.479Z,18.13
2023-01-28T05:59:16.096Z,18.20
2023-01-28T06:01:45.521Z,18.20
2023-01-28T06:04:13.749Z,19.57
2023-01-28T06:06:41.911Z,18.70
2023-01-28T06:09:09.946Z,18.40
2023-01-28T06:11:38.061Z,18.63
2023-01-28T06:14:06.194Z,18.23
2023-01-28T06:16:35.041Z,18.40
2023-01-28T06:19:04.579Z,19.30
2023-01-28T06:21:32.697Z,18.33
2023-01-28T06:24:00.879Z,18.60
2023-01-28T06:26:29.036Z,17.63
2023-01-28T06:28:57.181Z,17.90
2023-01-28T06:31:25.232Z,17.63
2023-01-28T06:33:53.391Z,17.57
2023-01-28T06:36:22.885Z,17.53
2023-01-28T06:38:51.045Z,17.70
2023-01-28T06:41:19.207Z,17.67
2023-01-28T06:43:47.341Z,18.57
2023-01-28T06:46:15.391Z,17.47
2023-01-28T06:48:43.475Z,17.30
2023-01-28T06:51:11.563Z,17.40
2023-01-28T06:53:40.984Z,17.20
2023-01-28T06:56:09.575Z,17.20
2023-01-28T06:58:37.578Z,17.50
2023-01-28T07:01:05.907Z,17.43
2023-01-28T07:03:34.042Z,17.70
2023-01-28T07:06:02.132Z,17.93
2023-01-28T07:08:30.230Z,18.40
2023-01-28T07:10:59.639Z,17.53
2023-01-28T07:13:27.742Z,18.10
2023-01-28T07:15:55.714Z,18.17
2023-01-28T07:18:23.983Z,17.67
2023-01-28T07:20:52.104Z,17.50
2023-01-28T07:23:20.223Z,17.23
2023-01-28T07:25:48.334Z,16.97
2023-01-28T07:28:21.355Z,16.67
2023-01-28T07:30:53.269Z,16.90
2023-01-28T07:33:22.219Z,16.53
2023-01-28T07:35:50.684Z,16.30
2023-01-28T07:38:18.927Z,16.63
2023-01-28T07:40:47.928Z,16.50
2023-01-28T07:43:17.437Z,16.70
2023-01-28T07:45:48.435Z,16.40
2023-01-28T07:48:17.001Z,16.30
2023-01-28T07:50:46.157Z,15.80
2023-01-28T07:53:14.319Z,15.50
2023-01-28T07:55:42.435Z,15.90
2023-01-28T07:58:12.981Z,16.10
2023-01-28T08:00:42.442Z,15.70
2023-01-28T08:03:14.527Z,15.27
2023-01-28T08:05:46.604Z,16.63
2023-01-28T08:08:15.147Z,16.67
2023-01-28T08:10:44.053Z,16.60
2023-01-28T08:13:13.789Z,16.17
2023-01-28T08:15:43.250Z,15.97
2023-01-28T08:18:13.583Z,15.80
2023-01-28T08:20:43.462Z,15.80
2023-01-28T08:23:14.083Z,15.43
2023-01-28T08:25:42.760Z,15.30
2023-01-28T08:28:11.770Z,15.40
2023-01-28T08:30:40.456Z,16.20
2023-01-28T08:33:11.965Z,16.40
2023-01-28T08:35:40.512Z,15.50
2023-01-28T08:38:10.150Z,15.27
2023-01-28T08:40:38.366Z,15.80
2023-01-28T08:43:06.646Z,16.47
2023-01-28T08:45:35.230Z,16.00
2023-01-28T08:48:05.463Z,16.57
2023-01-28T08:50:36.713Z,16.47
2023-01-28T08:53:06.738Z,18.13
2023-01-28T08:55:35.707Z,16.77
2023-01-28T08:58:05.279Z,17.20
2023-01-28T09:00:34.745Z,17.53
2023-01-28T09:03:05.870Z,17.50
2023-01-28T09:05:36.241Z,18.10
2023-01-28T09:08:04.918Z,17.57
2023-01-28T09:10:33.443Z,16.90
2023-01-28T09:13:06.453Z,16.97
2023-01-28T09:15:34.447Z,16.80
2023-01-28T09:18:03.678Z,17.47
2023-01-28T09:20:32.351Z,16.93
2023-01-28T09:23:04.068Z,17.00
2023-01-28T09:25:32.258Z,16.90
2023-01-28T09:28:00.513Z,17.00
2023-01-28T09:30:28.900Z,17.07
2023-01-28T09:32:58.478Z,17.20
2023-01-28T09:35:26.897Z,17.10
2023-01-28T09:37:58.240Z,17.07
2023-01-28T09:40:33.101Z,17.10
2023-01-28T09:43:19.493Z,17.07
2023-01-28T09:45:51.385Z,17.17
2023-01-28T09:48:22.692Z,17.13
2023-01-28T09:50:54.001Z,17.13
2023-01-28T09:53:24.853Z,17.10
2023-01-28T09:55:58.004Z,17.30
2023-01-28T09:58:26.289Z,17.30
2023-01-28T10:01:01.151Z,17.47
2023-01-28T10:03:50.125Z,17.10
2023-01-28T10:06:27.412Z,16.90
2023-01-28T10:09:20.554Z,17.37
2023-01-28T10:12:10.406Z,16.73
2023-01-28T10:14:50.979Z,16.63
2023-01-28T10:17:25.465Z,17.40
2023-01-28T10:19:58.651Z,17.33
2023-01-28T10:22:31.500Z,17.00
2023-01-28T10:25:06.503Z,17.23
2023-01-28T10:27:38.320Z,17.80
2023-01-28T10:30:19.279Z,17.20
2023-01-28T10:32:53.403Z,17.50
2023-01-28T10:35:22.128Z,17.10
2023-01-28T10:37:51.071Z,17.50
2023-01-28T10:40:20.224Z,17.00
2023-01-28T10:42:50.056Z,16.87
2023-01-28T10:45:21.728Z,17.40
2023-01-28T10:47:54.676Z,16.93
2023-01-28T10:50:25.695Z,17.50
2023-01-28T10:52:55.831Z,17.00
2023-01-28T10:55:25.520Z,16.77
2023-01-28T10:57:55.609Z,16.73
2023-01-28T11:00:30.838Z,16.53
2023-01-28T11:02:59.065Z,16.70
2023-01-28T11:05:29.366Z,16.53
2023-01-28T11:08:13.312Z,16.80
2023-01-28T11:10:42.419Z,16.70
2023-01-28T11:13:18.055Z,16.20
2023-01-28T11:15:50.466Z,16.20
2023-01-28T11:18:24.876Z,16.20
2023-01-28T11:20:56.839Z,16.00
2023-01-28T11:23:27.669Z,16.00
2023-01-28T11:26:08.212Z,16.50
2023-01-28T11:28:42.690Z,16.40
2023-01-28T11:31:14.120Z,16.60
2023-01-28T11:33:47.152Z,16.20
2023-01-28T11:36:17.018Z,16.00
2023-01-28T11:38:53.794Z,16.20
2023-01-28T11:41:28.115Z,16.00
2023-01-28T11:43:59.317Z,16.60
2023-01-28T11:46:44.634Z,16.20
2023-01-28T11:49:22.548Z,16.03
2023-01-28T11:51:57.737Z,15.97
2023-01-28T11:54:37.063Z,15.87
2023-01-28T11:57:25.500Z,15.40
2023-01-28T12:00:22.137Z,15.73
2023-01-28T12:02:58.808Z,16.33
2023-01-28T12:05:42.402Z,16.70
2023-01-28T12:08:19.613Z,15.93
2023-01-28T12:11:01.733Z,15.80
2023-01-28T12:13:44.355Z,15.80
2023-01-28T12:16:45.981Z,15.93
2023-01-28T12:19:53.525Z,15.73
2023-01-28T12:22:46.984Z,15.97
2023-01-28T12:25:28.236Z,16.10
2023-01-28T12:28:04.181Z,16.27
2023-01-28T12:30:52.575Z,15.87
2023-01-28T12:33:47.968Z,15.83
2023-01-28T12:36:31.493Z,15.93
2023-01-28T12:39:10.725Z,16.00
2023-01-28T12:41:43.954Z,15.80
2023-01-28T12:44:16.330Z,15.67
2023-01-28T12:46:51.262Z,15.50
2023-01-28T12:49:22.314Z,16.17
2023-01-28T12:52:02.860Z,15.83
2023-01-28T12:54:38.170Z,16.17
2023-01-28T12:57:09.029Z,16.20
2023-01-28T12:59:45.418Z,16.40
2023-01-28T13:02:23.320Z,15.77
2023-01-28T13:04:57.897Z,15.97
2023-01-28T13:07:33.318Z,16.20
2023-01-28T13:10:05.272Z,16.13
2023-01-28T13:12:34.486Z,16.40
2023-01-28T13:15:03.186Z,16.40
2023-01-28T13:17:33.322Z,16.03
2023-01-28T13:20:01.725Z,16.00
2023-01-28T13:22:35.287Z,16.07
2023-01-28T13:25:23.939Z,16.30
2023-01-28T13:28:00.788Z,16.50
2023-01-28T13:30:30.873Z,16.40
2023-01-28T13:33:01.657Z,15.93
2023-01-28T13:35:34.100Z,16.90
2023-01-28T13:38:10.257Z,16.00
2023-01-28T13:40:41.006Z,16.43
2023-01-28T13:43:28.600Z,16.03
2023-01-28T13:45:58.233Z,15.97
2023-01-28T13:48:33.459Z,16.30
2023-01-28T13:51:03.300Z,16.10
2023-01-28T13:53:45.364Z,16.33
2023-01-28T13:56:22.490Z,15.60
2023-01-28T13:59:09.631Z,16.80
2023-01-28T14:02:02.601Z,16.57
2023-01-28T14:05:01.648Z,16.60
2023-01-28T14:08:03.146Z,16.30
2023-01-28T14:10:50.280Z,16.40
2023-01-28T14:13:34.878Z,16.13
2023-01-28T14:16:28.678Z,16.30
2023-01-28T14:19:00.604Z,17.47
2023-01-28T14:21:32.120Z,16.30
2023-01-28T14:24:01.685Z,17.97
2023-01-28T14:26:40.789Z,16.53
2023-01-28T14:29:30.099Z,16.30
2023-01-28T14:31:58.459Z,16.37
2023-01-28T14:34:30.627Z,16.77
2023-01-28T14:37:02.711Z,16.87
2023-01-28T14:39:34.146Z,16.57
2023-01-28T14:42:04.655Z,16.40
2023-01-28T14:44:34.992Z,17.63
2023-01-28T14:47:30.673Z,16.37
2023-01-28T14:50:15.867Z,16.57
2023-01-28T14:53:12.956Z,16.70
2023-01-28T14:55:50.201Z,17.50
2023-01-28T14:58:25.888Z,16.63
2023-01-28T15:00:56.634Z,17.93
2023-01-28T15:03:25.966Z,16.60
2023-01-28T15:06:04.727Z,16.50
2023-01-28T15:08:33.299Z,24.80
2023-01-28T15:11:03.212Z,24.73
2023-01-28T15:13:38.556Z,23.47
2023-01-28T15:16:08.417Z,23.07
2023-01-28T15:18:39.048Z,22.90
2023-01-28T15:21:07.453Z,22.00
2023-01-28T15:23:37.604Z,21.57
2023-01-28T15:26:12.012Z,16.40
2023-01-28T15:28:41.992Z,16.27
2023-01-28T15:31:21.177Z,16.03
2023-01-28T15:33:57.814Z,16.37
2023-01-28T15:36:27.001Z,16.40
2023-01-28T15:38:55.225Z,16.33
2023-01-28T15:41:26.078Z,16.47
2023-01-28T15:43:55.659Z,16.10
2023-01-28T15:46:23.910Z,16.13
2023-01-28T15:48:59.105Z,16.43
2023-01-28T15:51:28.605Z,16.37
2023-01-28T15:54:00.924Z,17.73
2023-01-28T15:56:30.700Z,16.20
2023-01-28T15:59:17.681Z,15.83
2023-01-28T16:01:46.091Z,15.40
2023-01-28T16:04:24.451Z,15.30
2023-01-28T16:06:53.592Z,15.83
2023-01-28T16:09:25.202Z,15.17
2023-01-28T16:11:56.236Z,15.80
2023-01-28T16:14:29.250Z,15.57
2023-01-28T16:16:58.476Z,15.87
2023-01-28T16:19:49.177Z,15.80
2023-01-28T16:22:21.795Z,15.70
2023-01-28T16:24:52.243Z,16.17
2023-01-28T16:27:24.297Z,15.97
2023-01-28T16:29:52.798Z,17.87
2023-01-28T16:32:32.356Z,15.80
2023-01-28T16:35:03.185Z,15.47
2023-01-28T16:37:31.403Z,16.03
2023-01-28T16:40:01.582Z,16.07
2023-01-28T16:42:32.213Z,16.77
2023-01-28T16:45:00.497Z,16.10
2023-01-28T16:47:28.562Z,16.90
2023-01-28T16:49:56.651Z,17.83
2023-01-28T16:52:26.096Z,17.67
2023-01-28T16:54:54.232Z,16.60
2023-01-28T16:57:23.384Z,17.70
2023-01-28T16:59:51.510Z,16.60
2023-01-28T17:02:19.681Z,17.60
2023-01-28T17:04:47.724Z,17.97
2023-01-28T17:07:15.854Z,17.70
2023-01-28T17:09:45.360Z,17.33
2023-01-28T17:12:13.456Z,17.50
2023-01-28T17:14:41.643Z,17.67
2023-01-28T17:17:09.724Z,17.20
2023-01-28T17:19:37.832Z,17.40
2023-01-28T17:22:05.959Z,17.70
2023-01-28T17:24:34.147Z,17.93
2023-01-28T17:27:03.629Z,18.70
2023-01-28T17:29:31.905Z,17.93
2023-01-28T17:32:00.197Z,17.27
2023-01-28T17:34:28.555Z,16.97
2023-01-28T17:36:56.768Z,18.90
2023-01-28T17:39:25.112Z,18.73
2023-01-28T17:41:53.125Z,17.20
2023-01-28T17:44:23.108Z,17.40
2023-01-28T17:46:51.223Z,17.77
2023-01-28T17:49:19.357Z,17.90
2023-01-28T17:51:47.468Z,17.33
2023-01-28T17:54:16.905Z,17.30
2023-01-28T17:56:44.965Z,17.97
2023-01-28T17:59:16.848Z,17.60
2023-01-28T18:01:49.595Z,17.30
2023-01-28T18:04:18.962Z,17.40
2023-01-28T18:06:49.369Z,18.50
2023-01-28T18:09:17.977Z,18.30
2023-01-28T18:11:46.572Z,18.53
2023-01-28T18:14:15.954Z,18.20
2023-01-28T18:16:44.497Z,18.17
2023-01-28T18:19:14.736Z,18.10
2023-01-28T18:21:52.721Z,17.97
2023-01-28T18:24:24.090Z,18.00
2023-01-28T18:26:55.443Z,17.93
2023-01-28T18:29:24.447Z,17.93
2023-01-28T18:31:54.376Z,17.93
2023-01-28T18:34:26.182Z,17.53
2023-01-28T18:36:54.350Z,19.00
2023-01-28T18:39:24.007Z,19.63
2023-01-28T18:41:55.086Z,19.97
2023-01-28T18:44:28.386Z,20.40
2023-01-28T18:46:57.199Z,19.63
2023-01-28T18:49:27.518Z,19.40
2023-01-28T18:51:55.638Z,19.40
2023-01-28T18:54:24.939Z,19.20
2023-01-28T18:56:53.220Z,19.33
2023-01-28T18:59:21.386Z,19.80
2023-01-28T19:01:50.316Z,18.97
2023-01-28T19:04:19.046Z,21.10
2023-01-28T19:06:49.273Z,20.50
2023-01-28T19:09:18.375Z,20.20
2023-01-28T19:11:48.463Z,19.47
2023-01-28T19:14:17.380Z,19.97
2023-01-28T19:16:45.879Z,19.73
2023-01-28T19:19:14.057Z,20.07
2023-01-28T19:21:42.262Z,20.83
2023-01-28T19:24:14.104Z,21.17
2023-01-28T19:26:43.863Z,23.83
2023-01-28T19:29:15.544Z,22.77
2023-01-28T19:31:48.453Z,21.00
2023-01-28T19:34:16.984Z,22.20
2023-01-28T19:36:45.276Z,20.67
2023-01-28T19:39:15.475Z,20.23
2023-01-28T19:41:44.650Z,20.40
2023-01-28T19:44:13.373Z,21.97
2023-01-28T19:46:41.618Z,20.93
2023-01-28T19:49:10.642Z,20.83
2023-01-28T19:51:38.712Z,20.50
2023-01-28T19:54:06.834Z,19.93
2023-01-28T19:56:37.592Z,21.23
2023-01-28T19:59:06.387Z,21.47
2023-01-28T20:01:35.537Z,21.73
2023-01-28T20:04:04.797Z,22.53
2023-01-28T20:06:34.030Z,22.87
2023-01-28T20:09:04.284Z,21.57
2023-01-28T20:11:32.618Z,20.87
2023-01-28T20:14:02.314Z,21.33
2023-01-28T20:16:32.412Z,21.83
2023-01-28T20:19:02.502Z,22.37
2023-01-28T20:21:32.045Z,22.50
2023-01-28T20:24:02.173Z,23.43
2023-01-28T20:26:32.268Z,22.43
2023-01-28T20:29:03.375Z,21.53
2023-01-28T20:31:32.721Z,23.50
2023-01-28T20:34:01.825Z,21.93
2023-01-28T20:36:30.160Z,22.60
2023-01-28T20:38:58.622Z,22.30
2023-01-28T20:41:27.411Z,22.50
2023-01-28T20:43:56.051Z,22.73
2023-01-28T20:46:28.340Z,23.50
2023-01-28T20:48:57.847Z,21.73
2023-01-28T20:51:27.456Z,22.93
2023-01-28T20:53:56.531Z,21.40
2023-01-28T20:56:26.250Z,21.03
2023-01-28T20:58:56.491Z,20.77
2023-01-28T21:01:28.763Z,20.60
2023-01-28T21:03:57.561Z,21.60
2023-01-28T21:06:26.569Z,22.10
2023-01-28T21:08:54.661Z,21.83
2023-01-28T21:11:23.748Z,22.90
2023-01-28T21:13:52.219Z,22.30
2023-01-28T21:16:20.495Z,21.23
2023-01-28T21:18:50.378Z,21.87
2023-01-28T21:21:20.668Z,22.07
2023-01-28T21:23:48.788Z,22.43
2023-01-28T21:26:17.771Z,22.13
2023-01-28T21:28:46.288Z,23.80
2023-01-28T21:31:17.967Z,24.00
2023-01-28T21:33:50.783Z,23.47
2023-01-28T21:36:19.566Z,22.73
2023-01-28T21:38:52.847Z,23.37
2023-01-28T21:41:20.999Z,24.37
2023-01-28T21:43:52.124Z,23.57
2023-01-28T21:46:20.364Z,24.80
2023-01-28T21:48:49.792Z,23.77
2023-01-28T21:51:35.237Z,23.33
2023-01-28T21:54:03.582Z,22.67
2023-01-28T21:56:31.769Z,23.60
2023-01-28T21:59:17.478Z,23.40
2023-01-28T22:01:46.033Z,23.40
2023-01-28T22:04:16.373Z,24.33
2023-01-28T22:06:45.202Z,24.60
2023-01-28T22:09:14.235Z,24.73
2023-01-28T22:11:44.463Z,25.33
2023-01-28T22:14:13.552Z,25.77
2023-01-28T22:16:42.012Z,24.87
2023-01-28T22:19:10.755Z,25.50
2023-01-28T22:21:41.876Z,26.63
2023-01-28T22:24:12.709Z,26.93
2023-01-28T22:26:41.262Z,30.60
2023-01-28T22:29:09.767Z,29.03
2023-01-28T22:31:38.211Z,27.30
2023-01-28T22:34:07.159Z,26.53
2023-01-28T22:36:36.138Z,28.10
2023-01-28T22:39:08.378Z,28.00
2023-01-28T22:41:36.527Z,30.13
2023-01-28T22:44:04.763Z,28.23
2023-01-28T22:46:33.983Z,28.17
2023-01-28T22:49:03.254Z,28.33
2023-01-28T22:51:32.976Z,28.93
2023-01-28T22:54:01.306Z,28.87
2023-01-28T22:56:32.026Z,29.30
2023-01-28T22:59:02.388Z,28.60
2023-01-28T23:01:31.093Z,29.17
2023-01-28T23:03:59.408Z,30.40
2023-01-28T23:06:28.442Z,29.50
2023-01-28T23:08:57.200Z,30.27
2023-01-28T23:11:28.840Z,31.73
2023-01-28T23:14:18.629Z,31.13
2023-01-28T23:17:05.350Z,30.83
2023-01-28T23:19:51.080Z,31.97
2023-01-28T23:22:40.573Z,31.80
2023-01-28T23:25:09.369Z,32.50
2023-01-28T23:27:37.884Z,34.10
2023-01-28T23:30:10.360Z,32.87
2023-01-28T23:32:39.987Z,34.10
2023-01-28T23:35:08.884Z,34.37
2023-01-28T23:37:37.111Z,34.83
2023-01-28T23:40:06.092Z,34.47
2023-01-28T23:42:34.259Z,33.73
2023-01-28T23:45:02.370Z,33.60
2023-01-28T23:47:32.219Z,33.30
2023-01-28T23:50:00.506Z,33.50
2023-01-28T23:52:28.593Z,35.00
2023-01-28T23:54:56.699Z,35.13
2023-01-28T23:57:24.933Z,36.30
2023-01-28T23:59:53.430Z,34.70
